sensor_id;sensor_type;location;lat;lon;timestamp;P1;durP1;ratioP1;P2;durP2;ratioP2
13075;SDS011;6604;52.484;13.330;2022-10-16T07:48:12;2.87;;;2.10;;
13075;SDS011;6604;52.484;13.330;2022-10-16T07:50:39;2.23;;;2.07;;
13075;SDS011;6604;52.484;13.330;2022-10-16T07:53:05;2.03;;;1.80;;
13075;SDS011;6604;52.484;13.330;2022-10-16T07:55:32;2.07;;;1.97;;
13075;SDS011;6604;52.484;13.330;2022-10-16T07:57:58;2.27;;;2.00;;
13075;SDS011;6604;52.484;13.330;2022-10-16T08:00:24;2.07;;;1.97;;
13075;SDS011;6604;52.484;13.330;2022-10-16T08:02:51;2.73;;;2.23;;
13075;SDS011;6604;52.484;13.330;2022-10-16T08:05:18;4.10;;;3.70;;
13075;SDS011;6604;52.484;13.330;2022-10-16T08:07:47;4.93;;;2.97;;
13075;SDS011;6604;52.484;13.330;2022-10-16T08:10:15;2.27;;;1.80;;
13075;SDS011;6604;52.484;13.330;2022-10-16T08:12:42;2.93;;;1.80;;
13075;SDS011;6604;52.484;13.330;2022-10-16T08:15:09;2.30;;;2.03;;
13075;SDS011;6604;52.484;13.330;2022-10-16T08:17:36;2.73;;;1.83;;
13075;SDS011;6604;52.484;13.330;2022-10-16T08:20:03;2.10;;;1.90;;
13075;SDS011;6604;52.484;13.330;2022-10-16T08:22:31;2.53;;;1.67;;
13075;SDS011;6604;52.484;13.330;2022-10-16T08:24:57;1.80;;;1.70;;
13075;SDS011;6604;52.484;13.330;2022-10-16T08:27:23;6.90;;;2.30;;
13075;SDS011;6604;52.484;13.330;2022-10-16T08:29:50;2.77;;;2.10;;
13075;SDS011;6604;52.484;13.330;2022-10-16T08:32:16;2.00;;;1.90;;
13075;SDS011;6604;52.484;13.330;2022-10-16T08:34:42;2.23;;;2.00;;
13075;SDS011;6604;52.484;13.330;2022-10-16T08:37:09;2.60;;;2.40;;
13075;SDS011;6604;52.484;13.330;2022-10-16T08:39:37;1.80;;;1.70;;
13075;SDS011;6604;52.484;13.330;2022-10-16T08:42:10;2.33;;;2.13;;
13075;SDS011;6604;52.484;13.330;2022-10-16T08:44:45;1.80;;;1.70;;
13075;SDS011;6604;52.484;13.330;2022-10-16T08:47:17;1.80;;;1.70;;
13075;SDS011;6604;52.484;13.330;2022-10-16T08:49:47;2.93;;;2.10;;
13075;SDS011;6604;52.484;13.330;2022-10-16T08:52:18;2.50;;;1.87;;
13075;SDS011;6604;52.484;13.330;2022-10-16T08:54:47;2.80;;;1.90;;
13075;SDS011;6604;52.484;13.330;2022-10-16T08:57:17;2.07;;;1.77;;
13075;SDS011;6604;52.484;13.330;2022-10-16T08:59:45;1.70;;;1.60;;
13075;SDS011;6604;52.484;13.330;2022-10-16T09:02:18;2.50;;;1.50;;
13075;SDS011;6604;52.484;13.330;2022-10-16T09:04:48;2.60;;;1.63;;
13075;SDS011;6604;52.484;13.330;2022-10-16T09:07:20;2.10;;;1.37;;
13075;SDS011;6604;52.484;13.330;2022-10-16T09:09:54;1.60;;;1.50;;
13075;SDS011;6604;52.484;13.330;2022-10-16T09:12:27;2.30;;;1.90;;
13075;SDS011;6604;52.484;13.330;2022-10-16T09:15:00;1.40;;;1.30;;
13075;SDS011;6604;52.484;13.330;2022-10-16T09:17:39;1.60;;;1.50;;
13075;SDS011;6604;52.484;13.330;2022-10-16T09:20:19;2.00;;;1.80;;
13075;SDS011;6604;52.484;13.330;2022-10-16T09:22:49;1.83;;;1.60;;
13075;SDS011;6604;52.484;13.330;2022-10-16T09:25:20;2.20;;;1.60;;
13075;SDS011;6604;52.484;13.330;2022-10-16T09:27:47;2.77;;;1.80;;
13075;SDS011;6604;52.484;13.330;2022-10-16T09:30:15;1.60;;;1.50;;
13075;SDS011;6604;52.484;13.330;2022-10-16T09:32:42;2.13;;;1.50;;
13075;SDS011;6604;52.484;13.330;2022-10-16T09:35:11;1.43;;;1.33;;
13075;SDS011;6604;52.484;13.330;2022-10-16T09:37:39;2.60;;;1.67;;
13075;SDS011;6604;52.484;13.330;2022-10-16T09:40:07;1.87;;;1.37;;
13075;SDS011;6604;52.484;13.330;2022-10-16T09:42:35;1.50;;;1.40;;
13075;SDS011;6604;52.484;13.330;2022-10-16T09:45:03;2.63;;;1.47;;
13075;SDS011;6604;52.484;13.330;2022-10-16T09:47:30;3.77;;;1.70;;
13075;SDS011;6604;52.484;13.330;2022-10-16T09:49:58;1.80;;;1.70;;
13075;SDS011;6604;52.484;13.330;2022-10-16T09:52:27;1.60;;;1.50;;
13075;SDS011;6604;52.484;13.330;2022-10-16T09:54:54;4.07;;;1.80;;
13075;SDS011;6604;52.484;13.330;2022-10-16T09:57:21;2.70;;;1.80;;
13075;SDS011;6604;52.484;13.330;2022-10-16T09:59:49;2.60;;;1.60;;
13075;SDS011;6604;52.484;13.330;2022-10-16T10:02:16;1.57;;;1.47;;
13075;SDS011;6604;52.484;13.330;2022-10-16T10:04:45;2.00;;;1.70;;
13075;SDS011;6604;52.484;13.330;2022-10-16T10:07:18;1.73;;;1.60;;
13075;SDS011;6604;52.484;13.330;2022-10-16T10:09:46;1.93;;;1.40;;
13075;SDS011;6604;52.484;13.330;2022-10-16T10:12:20;2.83;;;2.57;;
13075;SDS011;6604;52.484;13.330;2022-10-16T10:14:48;1.70;;;1.60;;
13075;SDS011;6604;52.484;13.330;2022-10-16T10:17:16;1.87;;;1.57;;
13075;SDS011;6604;52.484;13.330;2022-10-16T10:19:47;1.47;;;1.30;;
13075;SDS011;6604;52.484;13.330;2022-10-16T10:22:17;1.50;;;1.40;;
13075;SDS011;6604;52.484;13.330;2022-10-16T10:24:44;1.80;;;1.70;;
13075;SDS011;6604;52.484;13.330;2022-10-16T10:27:12;3.00;;;1.73;;
13075;SDS011;6604;52.484;13.330;2022-10-16T10:29:45;2.47;;;1.40;;
13075;SDS011;6604;52.484;13.330;2022-10-16T10:32:17;1.30;;;1.20;;
13075;SDS011;6604;52.484;13.330;2022-10-16T10:34:51;1.80;;;1.40;;
13075;SDS011;6604;52.484;13.330;2022-10-16T10:37:26;1.73;;;1.10;;
13075;SDS011;6604;52.484;13.330;2022-10-16T10:39:56;1.20;;;1.10;;
13075;SDS011;6604;52.484;13.330;2022-10-16T10:42:25;1.57;;;1.23;;
13075;SDS011;6604;52.484;13.330;2022-10-16T10:45:08;1.27;;;1.17;;
13075;SDS011;6604;52.484;13.330;2022-10-16T10:47:41;1.20;;;1.20;;
13075;SDS011;6604;52.484;13.330;2022-10-16T10:50:14;1.30;;;1.20;;
13075;SDS011;6604;52.484;13.330;2022-10-16T10:52:45;2.63;;;1.27;;
13075;SDS011;6604;52.484;13.330;2022-10-16T10:55:15;1.83;;;1.17;;
13075;SDS011;6604;52.484;13.330;2022-10-16T10:57:45;1.90;;;1.30;;
13075;SDS011;6604;52.484;13.330;2022-10-16T11:00:18;3.90;;;1.33;;
13075;SDS011;6604;52.484;13.330;2022-10-16T11:02:50;1.83;;;1.20;;
13075;SDS011;6604;52.484;13.330;2022-10-16T11:05:23;3.57;;;1.30;;
13075;SDS011;6604;52.484;13.330;2022-10-16T11:07:53;2.10;;;1.40;;
13075;SDS011;6604;52.484;13.330;2022-10-16T11:10:21;1.70;;;1.20;;
13075;SDS011;6604;52.484;13.330;2022-10-16T11:12:49;1.37;;;1.13;;
13075;SDS011;6604;52.484;13.330;2022-10-16T11:15:18;1.40;;;1.30;;
13075;SDS011;6604;52.484;13.330;2022-10-16T11:17:47;1.67;;;1.33;;
13075;SDS011;6604;52.484;13.330;2022-10-16T11:20:16;4.50;;;1.30;;
13075;SDS011;6604;52.484;13.330;2022-10-16T11:22:44;1.40;;;1.30;;
13075;SDS011;6604;52.484;13.330;2022-10-16T11:25:13;1.30;;;1.20;;
13075;SDS011;6604;52.484;13.330;2022-10-16T11:27:42;1.57;;;1.23;;
13075;SDS011;6604;52.484;13.330;2022-10-16T11:30:12;1.27;;;1.07;;
13075;SDS011;6604;52.484;13.330;2022-10-16T11:32:42;2.70;;;1.43;;
13075;SDS011;6604;52.484;13.330;2022-10-16T11:35:12;1.20;;;1.10;;
13075;SDS011;6604;52.484;13.330;2022-10-16T11:37:41;2.70;;;1.33;;
13075;SDS011;6604;52.484;13.330;2022-10-16T11:40:14;1.00;;;1.00;;
13075;SDS011;6604;52.484;13.330;2022-10-16T11:42:44;1.23;;;0.80;;
13075;SDS011;6604;52.484;13.330;2022-10-16T11:45:15;4.17;;;1.00;;
13075;SDS011;6604;52.484;13.330;2022-10-16T11:47:48;1.10;;;0.90;;
13075;SDS011;6604;52.484;13.330;2022-10-16T11:50:18;1.40;;;1.30;;
13075;SDS011;6604;52.484;13.330;2022-10-16T11:52:51;2.00;;;1.10;;
13075;SDS011;6604;52.484;13.330;2022-10-16T11:55:21;1.83;;;1.30;;
13075;SDS011;6604;52.484;13.330;2022-10-16T11:57:49;2.10;;;1.00;;
13075;SDS011;6604;52.484;13.330;2022-10-16T12:00:19;2.00;;;0.93;;
13075;SDS011;6604;52.484;13.330;2022-10-16T12:02:49;0.90;;;0.90;;
13075;SDS011;6604;52.484;13.330;2022-10-16T12:05:22;1.13;;;1.03;;
13075;SDS011;6604;52.484;13.330;2022-10-16T12:07:53;3.60;;;1.20;;
13075;SDS011;6604;52.484;13.330;2022-10-16T12:10:23;2.33;;;1.10;;
13075;SDS011;6604;52.484;13.330;2022-10-16T12:12:50;1.10;;;1.10;;
13075;SDS011;6604;52.484;13.330;2022-10-16T12:15:19;2.30;;;1.10;;
13075;SDS011;6604;52.484;13.330;2022-10-16T12:17:46;3.60;;;3.17;;
13075;SDS011;6604;52.484;13.330;2022-10-16T12:20:19;3.00;;;2.70;;
13075;SDS011;6604;52.484;13.330;2022-10-16T12:22:47;2.30;;;1.13;;
13075;SDS011;6604;52.484;13.330;2022-10-16T12:25:20;1.67;;;1.57;;
13075;SDS011;6604;52.484;13.330;2022-10-16T12:27:53;3.20;;;1.00;;
13075;SDS011;6604;52.484;13.330;2022-10-16T12:30:20;1.97;;;1.00;;
13075;SDS011;6604;52.484;13.330;2022-10-16T12:32:52;0.80;;;0.80;;
13075;SDS011;6604;52.484;13.330;2022-10-16T12:35:20;0.90;;;0.90;;
13075;SDS011;6604;52.484;13.330;2022-10-16T12:37:47;0.90;;;0.90;;
13075;SDS011;6604;52.484;13.330;2022-10-16T12:40:15;1.57;;;1.40;;
13075;SDS011;6604;52.484;13.330;2022-10-16T12:42:43;1.87;;;1.30;;
13075;SDS011;6604;52.484;13.330;2022-10-16T12:45:22;1.43;;;1.07;;
13075;SDS011;6604;52.484;13.330;2022-10-16T12:47:50;2.17;;;1.20;;
13075;SDS011;6604;52.484;13.330;2022-10-16T12:53:04;0.93;;;0.90;;
13075;SDS011;6604;52.484;13.330;2022-10-16T12:55:45;1.40;;;1.00;;
13075;SDS011;6604;52.484;13.330;2022-10-16T12:58:20;0.90;;;0.90;;
13075;SDS011;6604;52.484;13.330;2022-10-16T13:00:50;2.33;;;0.70;;
13075;SDS011;6604;52.484;13.330;2022-10-16T13:03:24;0.80;;;0.80;;
13075;SDS011;6604;52.484;13.330;2022-10-16T13:05:56;0.80;;;0.80;;
13075;SDS011;6604;52.484;13.330;2022-10-16T13:08:39;0.70;;;0.70;;
13075;SDS011;6604;52.484;13.330;2022-10-16T13:11:08;1.33;;;0.70;;
13075;SDS011;6604;52.484;13.330;2022-10-16T13:16:21;1.00;;;0.70;;
13075;SDS011;6604;52.484;13.330;2022-10-16T13:18:57;4.03;;;3.17;;
13075;SDS011;6604;52.484;13.330;2022-10-16T13:21:31;0.87;;;0.83;;
13075;SDS011;6604;52.484;13.330;2022-10-16T13:24:01;3.10;;;1.10;;
13075;SDS011;6604;52.484;13.330;2022-10-16T13:26:31;0.73;;;0.73;;
13075;SDS011;6604;52.484;13.330;2022-10-16T13:29:03;0.90;;;0.73;;
13075;SDS011;6604;52.484;13.330;2022-10-16T13:31:31;3.10;;;0.80;;
13075;SDS011;6604;52.484;13.330;2022-10-16T13:33:59;1.67;;;0.70;;
13075;SDS011;6604;52.484;13.330;2022-10-16T13:36:26;0.63;;;0.63;;
13075;SDS011;6604;52.484;13.330;2022-10-16T13:39:00;1.30;;;0.50;;
13075;SDS011;6604;52.484;13.330;2022-10-16T13:41:29;3.40;;;0.70;;
13075;SDS011;6604;52.484;13.330;2022-10-16T13:43:56;1.60;;;0.87;;
13075;SDS011;6604;52.484;13.330;2022-10-16T13:46:23;2.73;;;0.90;;
13075;SDS011;6604;52.484;13.330;2022-10-16T13:48:57;1.83;;;0.80;;
13075;SDS011;6604;52.484;13.330;2022-10-16T13:51:24;0.73;;;0.73;;
13075;SDS011;6604;52.484;13.330;2022-10-16T13:53:51;1.80;;;0.93;;
13075;SDS011;6604;52.484;13.330;2022-10-16T13:56:18;2.43;;;0.70;;
13075;SDS011;6604;52.484;13.330;2022-10-16T13:58:45;1.40;;;1.10;;
13075;SDS011;6604;52.484;13.330;2022-10-16T14:01:15;0.80;;;0.80;;
13075;SDS011;6604;52.484;13.330;2022-10-16T14:03:42;1.80;;;0.97;;
13075;SDS011;6604;52.484;13.330;2022-10-16T14:06:12;2.47;;;1.20;;
13075;SDS011;6604;52.484;13.330;2022-10-16T14:08:41;1.00;;;1.00;;
13075;SDS011;6604;52.484;13.330;2022-10-16T14:11:08;2.20;;;1.00;;
13075;SDS011;6604;52.484;13.330;2022-10-16T14:13:36;0.83;;;0.83;;
13075;SDS011;6604;52.484;13.330;2022-10-16T14:16:05;3.43;;;1.40;;
13075;SDS011;6604;52.484;13.330;2022-10-16T14:18:32;1.30;;;1.10;;
13075;SDS011;6604;52.484;13.330;2022-10-16T14:21:03;1.13;;;1.07;;
13075;SDS011;6604;52.484;13.330;2022-10-16T14:23:32;1.57;;;1.00;;
13075;SDS011;6604;52.484;13.330;2022-10-16T14:26:12;2.63;;;1.17;;
13075;SDS011;6604;52.484;13.330;2022-10-16T14:28:39;3.03;;;0.97;;
13075;SDS011;6604;52.484;13.330;2022-10-16T14:31:19;2.83;;;1.50;;
13075;SDS011;6604;52.484;13.330;2022-10-16T14:33:48;1.60;;;1.50;;
13075;SDS011;6604;52.484;13.330;2022-10-16T14:36:14;2.70;;;1.40;;
13075;SDS011;6604;52.484;13.330;2022-10-16T14:38:47;1.33;;;1.00;;
13075;SDS011;6604;52.484;13.330;2022-10-16T14:41:14;1.37;;;1.27;;
13075;SDS011;6604;52.484;13.330;2022-10-16T14:43:41;1.77;;;1.10;;
13075;SDS011;6604;52.484;13.330;2022-10-16T14:46:11;4.37;;;1.27;;
13075;SDS011;6604;52.484;13.330;2022-10-16T14:48:40;2.00;;;0.90;;
13075;SDS011;6604;52.484;13.330;2022-10-16T14:51:08;1.10;;;1.00;;
13075;SDS011;6604;52.484;13.330;2022-10-16T14:53:37;1.10;;;1.10;;
13075;SDS011;6604;52.484;13.330;2022-10-16T14:56:07;1.13;;;1.10;;
13075;SDS011;6604;52.484;13.330;2022-10-16T14:58:34;2.03;;;1.00;;
13075;SDS011;6604;52.484;13.330;2022-10-16T15:01:01;0.90;;;0.90;;
13075;SDS011;6604;52.484;13.330;2022-10-16T15:03:27;2.57;;;1.30;;
13075;SDS011;6604;52.484;13.330;2022-10-16T15:05:54;1.10;;;1.00;;
13075;SDS011;6604;52.484;13.330;2022-10-16T15:08:23;1.63;;;1.00;;
13075;SDS011;6604;52.484;13.330;2022-10-16T15:10:50;1.20;;;1.10;;
13075;SDS011;6604;52.484;13.330;2022-10-16T15:13:18;1.50;;;1.00;;
13075;SDS011;6604;52.484;13.330;2022-10-16T15:15:45;1.00;;;1.00;;
13075;SDS011;6604;52.484;13.330;2022-10-16T15:18:12;3.80;;;1.47;;
13075;SDS011;6604;52.484;13.330;2022-10-16T15:20:44;3.37;;;1.10;;
13075;SDS011;6604;52.484;13.330;2022-10-16T15:23:12;1.13;;;0.93;;
13075;SDS011;6604;52.484;13.330;2022-10-16T15:25:41;2.37;;;1.27;;
13075;SDS011;6604;52.484;13.330;2022-10-16T15:28:08;1.13;;;0.90;;
13075;SDS011;6604;52.484;13.330;2022-10-16T15:30:36;2.37;;;1.10;;
13075;SDS011;6604;52.484;13.330;2022-10-16T15:33:03;0.90;;;0.90;;
13075;SDS011;6604;52.484;13.330;2022-10-16T15:35:30;1.00;;;1.00;;
13075;SDS011;6604;52.484;13.330;2022-10-16T15:37:56;1.10;;;1.00;;
13075;SDS011;6604;52.484;13.330;2022-10-16T15:40:23;1.03;;;1.03;;
13075;SDS011;6604;52.484;13.330;2022-10-16T15:42:49;2.30;;;1.07;;
13075;SDS011;6604;52.484;13.330;2022-10-16T15:45:16;1.43;;;1.00;;
13075;SDS011;6604;52.484;13.330;2022-10-16T15:47:43;1.30;;;1.00;;
13075;SDS011;6604;52.484;13.330;2022-10-16T15:50:10;1.20;;;1.10;;
13075;SDS011;6604;52.484;13.330;2022-10-16T15:52:37;0.93;;;0.90;;
13075;SDS011;6604;52.484;13.330;2022-10-16T15:55:04;2.43;;;1.17;;
13075;SDS011;6604;52.484;13.330;2022-10-16T15:57:31;2.70;;;1.10;;
13075;SDS011;6604;52.484;13.330;2022-10-16T15:59:57;1.23;;;1.07;;
13075;SDS011;6604;52.484;13.330;2022-10-16T16:02:24;2.33;;;1.10;;
13075;SDS011;6604;52.484;13.330;2022-10-16T16:04:51;1.37;;;1.23;;
13075;SDS011;6604;52.484;13.330;2022-10-16T16:07:18;2.00;;;1.47;;
13075;SDS011;6604;52.484;13.330;2022-10-16T16:09:45;1.50;;;1.30;;
13075;SDS011;6604;52.484;13.330;2022-10-16T16:12:12;2.77;;;1.40;;
13075;SDS011;6604;52.484;13.330;2022-10-16T16:14:38;2.43;;;1.40;;
13075;SDS011;6604;52.484;13.330;2022-10-16T16:17:04;1.30;;;1.20;;
13075;SDS011;6604;52.484;13.330;2022-10-16T16:19:31;1.47;;;1.10;;
13075;SDS011;6604;52.484;13.330;2022-10-16T16:21:59;4.90;;;1.17;;
13075;SDS011;6604;52.484;13.330;2022-10-16T16:24:25;4.80;;;2.63;;
13075;SDS011;6604;52.484;13.330;2022-10-16T16:26:52;2.27;;;1.60;;
13075;SDS011;6604;52.484;13.330;2022-10-16T16:29:19;4.07;;;2.27;;
13075;SDS011;6604;52.484;13.330;2022-10-16T16:31:45;8.17;;;6.00;;
13075;SDS011;6604;52.484;13.330;2022-10-16T16:34:12;4.67;;;3.90;;
13075;SDS011;6604;52.484;13.330;2022-10-16T16:36:38;4.20;;;2.47;;
13075;SDS011;6604;52.484;13.330;2022-10-16T16:39:06;5.93;;;3.17;;
13075;SDS011;6604;52.484;13.330;2022-10-16T16:41:33;4.50;;;2.77;;
13075;SDS011;6604;52.484;13.330;2022-10-16T16:44:03;2.53;;;2.10;;
13075;SDS011;6604;52.484;13.330;2022-10-16T16:46:30;3.60;;;2.40;;
13075;SDS011;6604;52.484;13.330;2022-10-16T16:48:57;2.03;;;1.70;;
13075;SDS011;6604;52.484;13.330;2022-10-16T16:51:24;4.13;;;1.77;;
13075;SDS011;6604;52.484;13.330;2022-10-16T16:53:51;4.00;;;2.10;;
13075;SDS011;6604;52.484;13.330;2022-10-16T16:56:19;2.17;;;1.47;;
13075;SDS011;6604;52.484;13.330;2022-10-16T16:58:46;2.50;;;1.53;;
13075;SDS011;6604;52.484;13.330;2022-10-16T17:01:12;5.10;;;3.07;;
13075;SDS011;6604;52.484;13.330;2022-10-16T17:03:41;6.17;;;4.20;;
13075;SDS011;6604;52.484;13.330;2022-10-16T17:06:09;4.73;;;2.93;;
13075;SDS011;6604;52.484;13.330;2022-10-16T17:08:35;2.20;;;1.73;;
13075;SDS011;6604;52.484;13.330;2022-10-16T17:11:01;4.27;;;1.70;;
13075;SDS011;6604;52.484;13.330;2022-10-16T17:13:30;2.40;;;1.40;;
13075;SDS011;6604;52.484;13.330;2022-10-16T17:15:59;8.83;;;2.00;;
13075;SDS011;6604;52.484;13.330;2022-10-16T17:18:26;5.50;;;2.50;;
13075;SDS011;6604;52.484;13.330;2022-10-16T17:20:52;2.10;;;1.90;;
13075;SDS011;6604;52.484;13.330;2022-10-16T17:23:19;2.77;;;1.67;;
13075;SDS011;6604;52.484;13.330;2022-10-16T17:25:45;2.33;;;1.73;;
13075;SDS011;6604;52.484;13.330;2022-10-16T17:28:12;3.47;;;2.07;;
13075;SDS011;6604;52.484;13.330;2022-10-16T17:30:40;5.33;;;1.90;;
13075;SDS011;6604;52.484;13.330;2022-10-16T17:33:07;2.37;;;1.97;;
13075;SDS011;6604;52.484;13.330;2022-10-16T17:35:35;4.03;;;3.43;;
13075;SDS011;6604;52.484;13.330;2022-10-16T17:38:02;2.83;;;2.00;;
13075;SDS011;6604;52.484;13.330;2022-10-16T17:40:29;2.83;;;2.00;;
13075;SDS011;6604;52.484;13.330;2022-10-16T17:42:55;3.30;;;1.83;;
13075;SDS011;6604;52.484;13.330;2022-10-16T17:45:22;3.00;;;2.17;;
13075;SDS011;6604;52.484;13.330;2022-10-16T17:47:50;3.23;;;1.70;;
13075;SDS011;6604;52.484;13.330;2022-10-16T17:50:16;4.43;;;2.00;;
13075;SDS011;6604;52.484;13.330;2022-10-16T17:52:43;4.43;;;3.20;;
13075;SDS011;6604;52.484;13.330;2022-10-16T17:55:09;2.60;;;2.17;;
13075;SDS011;6604;52.484;13.330;2022-10-16T17:57:36;4.00;;;2.80;;
13075;SDS011;6604;52.484;13.330;2022-10-16T18:00:03;4.37;;;2.73;;
13075;SDS011;6604;52.484;13.330;2022-10-16T18:02:32;6.40;;;2.90;;
13075;SDS011;6604;52.484;13.330;2022-10-16T18:05:00;7.13;;;3.00;;
13075;SDS011;6604;52.484;13.330;2022-10-16T18:07:30;5.60;;;3.33;;
13075;SDS011;6604;52.484;13.330;2022-10-16T18:09:56;4.00;;;2.57;;
13075;SDS011;6604;52.484;13.330;2022-10-16T18:12:23;4.90;;;2.43;;
13075;SDS011;6604;52.484;13.330;2022-10-16T18:14:49;6.07;;;2.90;;
13075;SDS011;6604;52.484;13.330;2022-10-16T18:17:17;4.87;;;2.87;;
13075;SDS011;6604;52.484;13.330;2022-10-16T18:19:43;7.57;;;2.53;;
13075;SDS011;6604;52.484;13.330;2022-10-16T18:22:11;4.60;;;2.90;;
13075;SDS011;6604;52.484;13.330;2022-10-16T18:24:38;6.10;;;2.93;;
13075;SDS011;6604;52.484;13.330;2022-10-16T18:27:04;8.37;;;2.97;;
13075;SDS011;6604;52.484;13.330;2022-10-16T18:29:31;3.20;;;2.63;;
13075;SDS011;6604;52.484;13.330;2022-10-16T18:31:57;3.57;;;2.50;;
13075;SDS011;6604;52.484;13.330;2022-10-16T18:34:25;4.30;;;2.70;;
13075;SDS011;6604;52.484;13.330;2022-10-16T18:36:52;3.73;;;2.93;;
13075;SDS011;6604;52.484;13.330;2022-10-16T18:39:20;2.97;;;2.53;;
13075;SDS011;6604;52.484;13.330;2022-10-16T18:41:47;7.33;;;3.03;;
13075;SDS011;6604;52.484;13.330;2022-10-16T18:44:15;3.27;;;2.70;;
13075;SDS011;6604;52.484;13.330;2022-10-16T18:46:42;4.00;;;3.23;;
13075;SDS011;6604;52.484;13.330;2022-10-16T18:49:08;6.60;;;3.60;;
13075;SDS011;6604;52.484;13.330;2022-10-16T18:51:36;6.30;;;2.90;;
13075;SDS011;6604;52.484;13.330;2022-10-16T18:54:04;4.97;;;3.67;;
13075;SDS011;6604;52.484;13.330;2022-10-16T18:56:33;6.00;;;3.20;;
13075;SDS011;6604;52.484;13.330;2022-10-16T18:59:00;5.70;;;3.80;;
13075;SDS011;6604;52.484;13.330;2022-10-16T19:01:27;4.53;;;3.57;;
13075;SDS011;6604;52.484;13.330;2022-10-16T19:03:55;7.37;;;4.40;;
13075;SDS011;6604;52.484;13.330;2022-10-16T19:06:22;9.00;;;4.27;;
13075;SDS011;6604;52.484;13.330;2022-10-16T19:08:50;5.97;;;4.27;;
13075;SDS011;6604;52.484;13.330;2022-10-16T19:11:17;5.97;;;4.40;;
13075;SDS011;6604;52.484;13.330;2022-10-16T19:13:46;10.50;;;5.13;;
13075;SDS011;6604;52.484;13.330;2022-10-16T19:16:13;7.87;;;4.63;;
13075;SDS011;6604;52.484;13.330;2022-10-16T19:18:40;7.57;;;4.13;;
13075;SDS011;6604;52.484;13.330;2022-10-16T19:21:06;5.57;;;4.00;;
13075;SDS011;6604;52.484;13.330;2022-10-16T19:23:33;6.13;;;4.07;;
13075;SDS011;6604;52.484;13.330;2022-10-16T19:26:01;5.03;;;4.10;;
13075;SDS011;6604;52.484;13.330;2022-10-16T19:28:28;6.90;;;4.13;;
13075;SDS011;6604;52.484;13.330;2022-10-16T19:30:56;6.80;;;4.30;;
13075;SDS011;6604;52.484;13.330;2022-10-16T19:33:26;7.23;;;4.57;;
13075;SDS011;6604;52.484;13.330;2022-10-16T19:35:52;6.20;;;4.20;;
13075;SDS011;6604;52.484;13.330;2022-10-16T19:38:18;9.20;;;4.30;;
13075;SDS011;6604;52.484;13.330;2022-10-16T19:40:45;7.40;;;4.83;;
13075;SDS011;6604;52.484;13.330;2022-10-16T19:43:11;6.83;;;4.50;;
13075;SDS011;6604;52.484;13.330;2022-10-16T19:45:37;11.83;;;5.13;;
13075;SDS011;6604;52.484;13.330;2022-10-16T19:48:05;8.03;;;5.03;;
13075;SDS011;6604;52.484;13.330;2022-10-16T19:50:32;8.27;;;4.87;;
13075;SDS011;6604;52.484;13.330;2022-10-16T19:52:58;7.23;;;4.53;;
13075;SDS011;6604;52.484;13.330;2022-10-16T19:55:24;6.40;;;5.07;;
13075;SDS011;6604;52.484;13.330;2022-10-16T19:57:51;5.57;;;4.67;;
13075;SDS011;6604;52.484;13.330;2022-10-16T20:00:17;8.03;;;4.80;;
13075;SDS011;6604;52.484;13.330;2022-10-16T20:02:44;8.50;;;5.63;;
13075;SDS011;6604;52.484;13.330;2022-10-16T20:05:12;9.73;;;5.70;;
13075;SDS011;6604;52.484;13.330;2022-10-16T20:07:39;10.40;;;5.47;;
13075;SDS011;6604;52.484;13.330;2022-10-16T20:10:06;6.63;;;5.20;;
13075;SDS011;6604;52.484;13.330;2022-10-16T20:12:32;7.57;;;5.33;;
13075;SDS011;6604;52.484;13.330;2022-10-16T20:14:58;7.60;;;5.13;;
13075;SDS011;6604;52.484;13.330;2022-10-16T20:17:26;7.27;;;5.80;;
13075;SDS011;6604;52.484;13.330;2022-10-16T20:19:52;8.93;;;6.40;;
13075;SDS011;6604;52.484;13.330;2022-10-16T20:22:20;10.77;;;7.90;;
13075;SDS011;6604;52.484;13.330;2022-10-16T20:24:46;9.97;;;6.37;;
13075;SDS011;6604;52.484;13.330;2022-10-16T20:27:15;11.43;;;6.63;;
13075;SDS011;6604;52.484;13.330;2022-10-16T20:29:41;7.33;;;5.93;;
13075;SDS011;6604;52.484;13.330;2022-10-16T20:32:08;9.47;;;5.10;;
13075;SDS011;6604;52.484;13.330;2022-10-16T20:34:34;8.30;;;5.27;;
13075;SDS011;6604;52.484;13.330;2022-10-16T20:37:01;9.20;;;5.80;;
13075;SDS011;6604;52.484;13.330;2022-10-16T20:39:31;8.13;;;6.00;;
13075;SDS011;6604;52.484;13.330;2022-10-16T20:41:57;9.93;;;5.87;;
13075;SDS011;6604;52.484;13.330;2022-10-16T20:44:23;7.67;;;5.80;;
13075;SDS011;6604;52.484;13.330;2022-10-16T20:46:50;8.50;;;5.57;;
13075;SDS011;6604;52.484;13.330;2022-10-16T20:49:19;11.40;;;6.67;;
13075;SDS011;6604;52.484;13.330;2022-10-16T20:51:45;9.00;;;5.30;;
13075;SDS011;6604;52.484;13.330;2022-10-16T20:54:14;9.83;;;5.60;;
13075;SDS011;6604;52.484;13.330;2022-10-16T20:56:42;7.43;;;5.60;;
13075;SDS011;6604;52.484;13.330;2022-10-16T20:59:09;7.57;;;5.20;;
13075;SDS011;6604;52.484;13.330;2022-10-16T21:01:36;11.10;;;6.33;;
13075;SDS011;6604;52.484;13.330;2022-10-16T21:04:04;9.10;;;5.83;;
13075;SDS011;6604;52.484;13.330;2022-10-16T21:06:31;7.70;;;5.47;;
13075;SDS011;6604;52.484;13.330;2022-10-16T21:08:58;6.73;;;5.27;;
13075;SDS011;6604;52.484;13.330;2022-10-16T21:11:27;7.63;;;5.30;;
13075;SDS011;6604;52.484;13.330;2022-10-16T21:13:56;7.43;;;5.17;;
13075;SDS011;6604;52.484;13.330;2022-10-16T21:16:23;7.67;;;5.53;;
13075;SDS011;6604;52.484;13.330;2022-10-16T21:18:50;7.17;;;5.10;;
13075;SDS011;6604;52.484;13.330;2022-10-16T21:21:18;6.77;;;5.30;;
13075;SDS011;6604;52.484;13.330;2022-10-16T21:23:45;7.30;;;5.13;;
13075;SDS011;6604;52.484;13.330;2022-10-16T21:26:11;6.37;;;4.93;;
13075;SDS011;6604;52.484;13.330;2022-10-16T21:28:38;7.67;;;5.20;;
